Wilkesville, Ohio
Current Conditions -  °F | °C
As of 3:35 PM on Saturday 25 Oct 2014 (Local Time) from KUNI Reporting Station
Broken Clouds Broken Clouds  
Wind Chill: 67°   Ceiling: 3200
Heat Index: 67°   Visibility: 10mi
Dew Point: 51°   Wind: 10mph
Humidity: 55%   Direction: 220°SW
Pressure: 29.89"   Gusts: 16mph
Location:  39.07°N, 82.33°W
Report Text: KUNI 251935Z AUTO 22009G14KT 180V240 10SM BKN032 20/10 A2989 RMK AO2 T01970104
Loading
Personal Weather Stations






























Interactive Weather Map
Tropical Storm Tracking
New forecast layout! Learn more

10-Day Weather Forecast

Advertisements
Track Severe Weather on mobile